Time;durP1;ratioP1;P1;durP2;ratioP2;P2;SDS_P1;SDS_P2;PMS_P1;PMS_P2;Temp;Humidity;BMP_temperature;BMP_pressure;BME280_temperature;BME280_humidity;BME280_pressure;Samples;Min_cycle;Max_cycle;Signal;HPM_P1;HPM_P2
2022/07/07 00:01:48;;;;;;;;;;;;;;;-144.99;100.00;52297.25;5047417;28;20015;-64
2022/07/07 00:04:14;;;;;;;;;;;;;;;-144.99;100.00;52268.72;5048786;28;19972;-62
2022/07/07 00:06:41;;;;;;;;;;;;;;;-144.99;100.00;52246.31;5048048;28;20183;-64
2022/07/07 00:09:07;;;;;;;;;;;;;;;-144.99;100.00;52280.97;5048578;28;19925;-65
2022/07/07 00:11:35;;;;;;;;;;;;;;;-144.99;100.00;52285.03;5047871;28;19975;-65
2022/07/07 00:14:01;;;;;;;;;;;;;;;-144.99;100.00;52276.88;5047611;28;20010;-65
2022/07/07 00:16:28;;;;;;;;;;;;;;;-144.99;100.00;52248.34;5045800;28;20011;-67
2022/07/07 00:18:57;;;;;;;;;;;;;;;-144.99;100.00;52333.94;5048267;28;20424;-67
2022/07/07 00:21:24;;;;;;;;;;;;;;;-144.99;100.00;52236.13;5046989;28;20033;-67
2022/07/07 00:23:50;;;;;;;;;;;;;;;-144.99;100.00;52289.13;5045724;28;19939;-66
2022/07/07 00:26:17;;;;;;;;;;;;;;;-144.99;100.00;52313.56;4697911;28;9999613;-66
2022/07/07 00:28:45;;;;;;;;;;;;;;;-144.99;100.00;52264.66;5048062;28;19995;-66
2022/07/07 00:31:11;;;;;;;;;;;;;;;-144.99;100.00;52289.13;5046757;28;20020;-66
2022/07/07 00:33:38;;;;;;;;;;;;;;;-144.99;100.00;52283.00;5047041;28;20465;-66
2022/07/07 00:36:07;;;;;;;;;;;;;;;-144.99;100.00;52268.72;5045256;22;20017;-63
2022/07/07 00:38:34;;;;;;;;;;;;;;;-144.99;100.00;52303.38;5005714;28;19929;-63
2022/07/07 00:41:00;;;;;;;;;;;;;;;-144.99;100.00;52285.03;4982738;28;19926;-63
2022/07/07 00:43:27;;;;;;;;;;;;;;;-144.99;100.00;52283.00;4981425;28;19965;-63
2022/07/07 00:45:55;;;;;;;;;;;;;;;-144.99;100.00;52252.44;4985399;28;20270;-63
2022/07/07 00:48:21;;;;;;;;;;;;;;;-144.99;100.00;52321.72;4989458;28;20022;-64
2022/07/07 00:50:48;;;;;;;;;;;;;;;-144.99;100.00;52301.34;4985207;28;19944;-64
2022/07/07 00:53:15;;;;;;;;;;;;;;;-144.99;100.00;52315.59;4996841;28;19930;-64
2022/07/07 00:55:42;;;;;;;;;;;;;;;-144.99;100.00;52264.66;5000308;28;19938;-64
2022/07/07 00:58:08;;;;;;;;;;;;;;;-144.99;100.00;52264.66;4988899;28;19969;-63
2022/07/07 01:00:35;;;;;;;;;;;;;;;-144.99;100.00;52264.66;4988492;28;20426;-64
2022/07/07 01:03:03;;;;;;;;;;;;;;;-144.99;100.00;52293.19;4988153;28;20402;-64
2022/07/07 01:05:32;;;;;;;;;;;;;;;-144.99;100.00;52289.13;4986768;28;20021;-64
2022/07/07 01:07:59;;;;;;;;;;;;;;;-144.99;100.00;52289.13;4988644;28;19973;-61
2022/07/07 01:10:25;;;;;;;;;;;;;;;-144.99;100.00;52270.78;4988181;28;20272;-62
2022/07/07 01:12:52;;;;;;;;;;;;;;;-144.99;100.00;52250.38;4988737;28;20461;-61
2022/07/07 01:15:18;;;;;;;;;;;;;;;-144.99;100.00;52240.19;4987156;28;20030;-61
2022/07/07 01:17:45;;;;;;;;;;;;;;;-144.99;100.00;52285.03;4987427;28;19980;-62
2022/07/07 01:20:13;;;;;;;;;;;;;;;-144.99;100.00;52272.81;4987837;28;19946;-60
2022/07/07 01:22:40;;;;;;;;;;;;;;;-144.99;100.00;52293.19;4988164;28;19962;-61
2022/07/07 01:25:08;;;;;;;;;;;;;;;-144.99;100.00;52287.06;4987374;28;19965;-60
2022/07/07 01:27:35;;;;;;;;;;;;;;;-144.99;100.00;52285.03;4987231;28;19961;-61
2022/07/07 01:30:01;;;;;;;;;;;;;;;-144.99;100.00;52252.44;4986786;28;20004;-61
2022/07/07 01:32:28;;;;;;;;;;;;;;;-144.99;100.00;52301.34;4988320;28;19930;-60
2022/07/07 01:34:55;;;;;;;;;;;;;;;-144.99;100.00;52248.34;4987075;28;20085;-60
2022/07/07 01:37:24;;;;;;;;;;;;;;;-144.99;100.00;52270.78;4989672;28;19991;-56
2022/07/07 01:39:51;;;;;;;;;;;;;;;-144.99;100.00;52285.03;4989567;28;19926;-57
2022/07/07 01:42:19;;;;;;;;;;;;;;;-144.99;100.00;52252.44;4987094;28;20469;-58
2022/07/07 01:44:45;;;;;;;;;;;;;;;-144.99;100.00;52272.81;4986427;28;20020;-58
2022/07/07 01:47:13;;;;;;;;;;;;;;;-144.99;100.00;52248.34;5002726;28;19933;-58
2022/07/07 01:49:39;;;;;;;;;;;;;;;-144.99;100.00;52240.19;4984883;28;19961;-58
2022/07/07 01:52:07;;;;;;;;;;;;;;;-144.99;100.00;52240.19;4987643;28;19926;-59
2022/07/07 01:54:34;;;;;;;;;;;;;;;-144.99;100.00;52264.66;4986874;28;20025;-58
2022/07/07 01:57:00;;;;;;;;;;;;;;;-144.99;100.00;52276.88;4986843;28;20036;-57
2022/07/07 01:59:28;;;;;;;;;;;;;;;-144.99;100.00;52223.88;4986878;28;19961;-58
2022/07/07 02:01:55;;;;;;;;;;;;;;;-144.99;100.00;52256.50;4986589;28;19925;-58
2022/07/07 02:04:21;;;;;;;;;;;;;;;-144.99;100.00;52264.66;4988146;28;19933;-58
2022/07/07 02:06:48;;;;;;;;;;;;;;;-144.99;100.00;52293.19;4986280;28;19977;-57
2022/07/07 02:09:15;;;;;;;;;;;;;;;-144.99;100.00;52268.72;4986828;28;19926;-57
2022/07/07 02:11:42;;;;;;;;;;;;;;;-144.99;100.00;52270.78;4987150;28;19933;-57
2022/07/07 02:14:08;;;;;;;;;;;;;;;-144.99;100.00;52301.34;4987799;28;19965;-57
2022/07/07 02:16:36;;;;;;;;;;;;;;;-144.99;100.00;52248.34;4986617;28;19929;-57
2022/07/07 02:19:04;;;;;;;;;;;;;;;-144.99;100.00;52260.56;4988050;28;19926;-62
2022/07/07 02:21:31;;;;;;;;;;;;;;;-144.99;100.00;52207.59;4986449;28;20405;-64
2022/07/07 02:23:58;;;;;;;;;;;;;;;-144.99;100.00;52280.97;4987642;28;19968;-64
2022/07/07 02:26:25;;;;;;;;;;;;;;;-144.99;100.00;52276.88;4985392;28;20366;-64
2022/07/07 02:28:51;;;;;;;;;;;;;;;-144.99;100.00;52236.13;4987984;28;20297;-64
2022/07/07 02:31:18;;;;;;;;;;;;;;;-144.99;100.00;52276.88;4983686;28;20188;-65
2022/07/07 02:33:46;;;;;;;;;;;;;;;-144.99;100.00;52240.19;4987892;28;19957;-65
2022/07/07 02:36:13;;;;;;;;;;;;;;;-144.99;100.00;52283.00;4984830;28;19936;-65
2022/07/07 02:38:40;;;;;;;;;;;;;;;-144.99;100.00;52244.28;4991615;28;20017;-65
2022/07/07 02:41:07;;;;;;;;;;;;;;;-144.99;100.00;52285.03;4987092;28;19948;-64
2022/07/07 02:43:33;;;;;;;;;;;;;;;-144.99;100.00;52301.34;4988171;28;20025;-65
2022/07/07 02:46:00;;;;;;;;;;;;;;;-144.99;100.00;52283.00;4986553;28;20432;-65
2022/07/07 02:48:27;;;;;;;;;;;;;;;-144.99;100.00;52240.19;4987708;28;20012;-65
2022/07/07 02:50:55;;;;;;;;;;;;;;;-144.99;100.00;52232.03;4986356;28;20455;-68
2022/07/07 02:53:22;;;;;;;;;;;;;;;-144.99;100.00;52242.22;4987603;28;20021;-62
2022/07/07 02:55:49;;;;;;;;;;;;;;;-144.99;100.00;52297.25;4985539;28;19996;-62
2022/07/07 02:58:19;;;;;;;;;;;;;;;-144.99;100.00;52260.56;4987632;28;20354;-63
2022/07/07 03:00:46;;;;;;;;;;;;;;;-144.99;100.00;52240.19;4989914;28;19926;-60
2022/07/07 03:03:12;;;;;;;;;;;;;;;-144.99;100.00;52252.44;4990544;28;20017;-61
2022/07/07 03:05:39;;;;;;;;;;;;;;;-144.99;100.00;52262.63;4987353;28;20029;-60
2022/07/07 03:08:07;;;;;;;;;;;;;;;-144.99;100.00;52276.88;4989322;28;20409;-60
2022/07/07 03:10:33;;;;;;;;;;;;;;;-144.99;100.00;52301.34;4989872;28;20443;-61
2022/07/07 03:13:00;;;;;;;;;;;;;;;-144.99;100.00;52248.34;4999424;28;20024;-61
2022/07/07 03:15:26;;;;;;;;;;;;;;;-144.99;100.00;52232.03;4987532;28;19926;-61
2022/07/07 03:17:53;;;;;;;;;;;;;;;-144.99;100.00;52266.69;4990019;28;19972;-60
2022/07/07 03:20:19;;;;;;;;;;;;;;;-144.99;100.00;52291.16;4987500;28;19988;-60
2022/07/07 03:22:46;;;;;;;;;;;;;;;-144.99;100.00;52240.19;4984329;28;20016;-62
2022/07/07 03:25:14;;;;;;;;;;;;;;;-144.99;100.00;52248.34;4989437;28;20017;-62
2022/07/07 03:27:41;;;;;;;;;;;;;;;-144.99;100.00;52285.03;4989373;28;19926;-63
2022/07/07 03:30:08;;;;;;;;;;;;;;;-144.99;100.00;52256.50;4991177;28;19973;-65
2022/07/07 03:32:35;;;;;;;;;;;;;;;-144.99;100.00;52280.97;4991106;28;19956;-66
2022/07/07 03:35:02;;;;;;;;;;;;;;;-144.99;100.00;52240.19;4990504;28;19999;-69
2022/07/07 03:37:29;;;;;;;;;;;;;;;-144.99;100.00;52252.44;4991858;28;20086;-66
2022/07/07 03:39:56;;;;;;;;;;;;;;;-144.99;100.00;52254.47;4990639;28;19926;-67
2022/07/07 03:42:23;;;;;;;;;;;;;;;-144.99;100.00;52244.28;4990337;28;19961;-66
2022/07/07 03:44:50;;;;;;;;;;;;;;;-144.99;100.00;52252.44;4990249;28;19957;-64
2022/07/07 03:47:17;;;;;;;;;;;;;;;-144.99;100.00;52215.75;4990039;28;19972;-64
2022/07/07 03:49:43;;;;;;;;;;;;;;;-144.99;100.00;52230.00;4990184;28;19925;-63
2022/07/07 03:52:09;;;;;;;;;;;;;;;-144.99;100.00;52244.28;4990887;28;19953;-61
2022/07/07 03:54:36;;;;;;;;;;;;;;;-144.99;100.00;52236.13;4989388;28;19948;-62
2022/07/07 03:57:02;;;;;;;;;;;;;;;-144.99;100.00;52244.28;4988519;28;20167;-63
2022/07/07 03:59:30;;;;;;;;;;;;;;;-144.99;100.00;52264.66;4989812;28;20428;-60
2022/07/07 04:01:57;;;;;;;;;;;;;;;-144.99;100.00;52264.66;4990007;28;19930;-61
2022/07/07 04:04:23;;;;;;;;;;;;;;;-144.99;100.00;52240.19;4989718;28;19961;-61
2022/07/07 04:06:50;;;;;;;;;;;;;;;-144.99;100.00;52256.50;4989406;28;19989;-62
2022/07/07 04:09:16;;;;;;;;;;;;;;;-144.99;100.00;52250.38;4988309;28;20012;-61
2022/07/07 04:11:42;;;;;;;;;;;;;;;-144.99;100.00;52256.50;4989392;28;20020;-63
2022/07/07 04:14:09;;;;;;;;;;;;;;;-144.99;100.00;52268.72;5019921;28;19952;-62
2022/07/07 04:16:37;;;;;;;;;;;;;;;-144.99;100.00;52248.34;4989315;28;20438;-62
2022/07/07 04:19:03;;;;;;;;;;;;;;;-144.99;100.00;52280.97;4991051;28;19932;-61
2022/07/07 04:21:29;;;;;;;;;;;;;;;-144.99;100.00;52266.69;4989723;28;20021;-61
2022/07/07 04:23:56;;;;;;;;;;;;;;;-144.99;100.00;52250.38;4990830;28;20008;-62
2022/07/07 04:26:22;;;;;;;;;;;;;;;-144.99;100.00;52276.88;4986336;28;20009;-62
2022/07/07 04:28:49;;;;;;;;;;;;;;;-144.99;100.00;52236.13;4989409;28;20040;-62
2022/07/07 04:31:15;;;;;;;;;;;;;;;-144.99;100.00;52240.19;4988455;28;20032;-63
2022/07/07 04:33:43;;;;;;;;;;;;;;;-144.99;100.00;52248.34;4989940;28;19926;-61
2022/07/07 04:36:11;;;;;;;;;;;;;;;-144.99;100.00;52248.34;4987847;28;20018;-62
2022/07/07 04:38:37;;;;;;;;;;;;;;;-144.99;100.00;52266.69;4990284;28;19929;-62
2022/07/07 04:41:04;;;;;;;;;;;;;;;-144.99;100.00;52258.53;4989464;28;19957;-62
2022/07/07 04:43:30;;;;;;;;;;;;;;;-144.99;100.00;52240.19;4989000;28;20056;-62
2022/07/07 04:45:57;;;;;;;;;;;;;;;-144.99;100.00;52293.19;4994747;28;20066;-61
2022/07/07 04:48:23;;;;;;;;;;;;;;;-144.99;100.00;52260.56;4986783;28;20017;-61
2022/07/07 04:50:51;;;;;;;;;;;;;;;-144.99;100.00;52285.03;4988143;28;20314;-61
2022/07/07 04:53:17;;;;;;;;;;;;;;;-144.99;100.00;52248.34;4990346;28;20290;-61
2022/07/07 04:55:44;;;;;;;;;;;;;;;-144.99;100.00;52236.13;4995801;28;19926;-62
2022/07/07 04:58:10;;;;;;;;;;;;;;;-144.99;100.00;52244.28;4987243;28;19929;-62
2022/07/07 05:00:37;;;;;;;;;;;;;;;-144.99;100.00;52252.44;4988692;28;20016;-61
2022/07/07 05:03:03;;;;;;;;;;;;;;;-144.99;100.00;52268.72;4988506;28;19961;-64
2022/07/07 05:05:30;;;;;;;;;;;;;;;-144.99;100.00;52276.88;4988965;28;20394;-65
2022/07/07 05:07:57;;;;;;;;;;;;;;;-144.99;100.00;52252.44;4985729;28;20434;-66
2022/07/07 05:10:25;;;;;;;;;;;;;;;-144.99;100.00;52280.97;4985227;28;20020;-67
2022/07/07 05:12:51;;;;;;;;;;;;;;;-144.99;100.00;52256.50;4987715;28;20319;-67
2022/07/07 05:15:18;;;;;;;;;;;;;;;-144.99;100.00;52266.69;4987458;28;19925;-67
2022/07/07 05:17:48;;;;;;;;;;;;;;;-144.99;100.00;52285.03;4415222;28;10000726;-68
2022/07/07 05:20:14;;;;;;;;;;;;;;;-144.99;100.00;52227.97;4984220;28;20041;-66
2022/07/07 05:22:40;;;;;;;;;;;;;;;-144.99;100.00;52215.75;4984599;28;19995;-66
2022/07/07 05:25:08;;;;;;;;;;;;;;;-144.99;100.00;52280.97;4985001;28;20344;-66
2022/07/07 05:27:35;;;;;;;;;;;;;;;-144.99;100.00;52195.34;4985406;28;20177;-66
2022/07/07 05:30:01;;;;;;;;;;;;;;;-144.99;100.00;52234.09;4985951;28;20012;-67
2022/07/07 05:32:28;;;;;;;;;;;;;;;-144.99;100.00;52238.16;4981690;28;19930;-67
2022/07/07 05:34:54;;;;;;;;;;;;;;;-144.99;100.00;52215.75;4983577;28;19999;-66
2022/07/07 05:37:21;;;;;;;;;;;;;;;-144.99;100.00;52236.13;5001866;28;20455;-66
2022/07/07 05:39:47;;;;;;;;;;;;;;;-144.99;100.00;52276.88;4984390;28;20399;-66
2022/07/07 05:42:15;;;;;;;;;;;;;;;-144.99;100.00;52287.06;4984359;28;19930;-67
2022/07/07 05:44:42;;;;;;;;;;;;;;;-144.99;100.00;52244.28;4984431;28;20033;-67
2022/07/07 05:47:09;;;;;;;;;;;;;;;-144.99;100.00;52248.34;4990112;28;19926;-66
2022/07/07 05:49:35;;;;;;;;;;;;;;;-144.99;100.00;52289.13;4985108;28;20021;-66
2022/07/07 05:52:02;;;;;;;;;;;;;;;-144.99;100.00;52246.31;4984374;28;20216;-66
2022/07/07 05:54:28;;;;;;;;;;;;;;;-144.99;100.00;52264.66;4983032;28;19979;-66
2022/07/07 05:56:55;;;;;;;;;;;;;;;-144.99;100.00;52252.44;4984931;28;19926;-67
2022/07/07 05:59:23;;;;;;;;;;;;;;;-144.99;100.00;52260.56;4978462;28;20195;-67
2022/07/07 06:01:50;;;;;;;;;;;;;;;-144.99;100.00;52268.72;4984502;28;20028;-66
2022/07/07 06:04:16;;;;;;;;;;;;;;;-144.99;100.00;52264.66;4983862;28;20019;-67
2022/07/07 06:06:42;;;;;;;;;;;;;;;-144.99;100.00;52248.34;4984036;28;20009;-66
2022/07/07 06:09:09;;;;;;;;;;;;;;;-144.99;100.00;52232.03;5016854;28;20044;-66
2022/07/07 06:11:36;;;;;;;;;;;;;;;-144.99;100.00;52248.34;4988925;28;19957;-67
2022/07/07 06:14:03;;;;;;;;;;;;;;;-144.99;100.00;52221.84;4988215;28;19930;-68
2022/07/07 06:16:40;;;;;;;;;;;;;;;-144.99;100.00;52227.97;4987817;28;20025;-67
2022/07/07 06:19:08;;;;;;;;;;;;;;;-144.99;100.00;52199.44;4983514;28;20039;-67
2022/07/07 06:21:34;;;;;;;;;;;;;;;-144.99;100.00;52268.72;4986931;28;19936;-67
2022/07/07 06:24:01;;;;;;;;;;;;;;;-144.99;100.00;52240.19;5005298;28;19969;-66
2022/07/07 06:26:27;;;;;;;;;;;;;;;-144.99;100.00;52256.50;4982278;28;19961;-67
2022/07/07 06:28:54;;;;;;;;;;;;;;;-144.99;100.00;52248.34;4986291;28;20016;-67
2022/07/07 06:31:20;;;;;;;;;;;;;;;-144.99;100.00;52227.97;4986977;28;19933;-67
2022/07/07 06:33:48;;;;;;;;;;;;;;;-144.99;100.00;52242.22;4989279;28;19926;-67
2022/07/07 06:36:14;;;;;;;;;;;;;;;-144.99;100.00;52285.03;4990257;28;20086;-67
2022/07/07 06:38:41;;;;;;;;;;;;;;;-144.99;100.00;52223.88;5011408;28;19973;-67
2022/07/07 06:41:07;;;;;;;;;;;;;;;-144.99;100.00;52232.03;4989028;28;20013;-68
2022/07/07 06:43:34;;;;;;;;;;;;;;;-144.99;100.00;52232.03;4987836;28;19980;-67
2022/07/07 06:46:00;;;;;;;;;;;;;;;-144.99;100.00;52240.19;4987243;28;19929;-67
2022/07/07 06:48:27;;;;;;;;;;;;;;;-144.99;100.00;52203.50;4979667;28;20016;-66
2022/07/07 06:50:55;;;;;;;;;;;;;;;-144.99;100.00;52232.03;4986640;28;20028;-67
2022/07/07 06:53:21;;;;;;;;;;;;;;;-144.99;100.00;52191.28;4987597;28;20020;-68
2022/07/07 06:55:48;;;;;;;;;;;;;;;-144.99;100.00;52223.88;4987073;28;20298;-66
2022/07/07 06:58:14;;;;;;;;;;;;;;;-144.99;100.00;52232.03;4994746;28;19975;-67
2022/07/07 07:00:40;;;;;;;;;;;;;;;-144.99;100.00;52211.66;4993938;28;19957;-67
2022/07/07 07:03:07;;;;;;;;;;;;;;;-144.99;100.00;52244.28;4987804;28;19936;-66
2022/07/07 07:05:34;;;;;;;;;;;;;;;-144.99;100.00;52268.72;4987047;28;20028;-67
2022/07/07 07:08:02;;;;;;;;;;;;;;;-144.99;100.00;52223.88;4987765;28;20000;-67
2022/07/07 07:10:29;;;;;;;;;;;;;;;-144.99;100.00;52244.28;4985962;28;19962;-68
2022/07/07 07:12:55;;;;;;;;;;;;;;;-144.99;100.00;52256.50;4986804;28;20021;-68
2022/07/07 07:15:22;;;;;;;;;;;;;;;-144.99;100.00;52244.28;4987071;28;19933;-67
2022/07/07 07:17:48;;;;;;;;;;;;;;;-144.99;100.00;52260.56;4987412;28;19961;-68
2022/07/07 07:20:15;;;;;;;;;;;;;;;-144.99;100.00;52262.63;4987159;28;19933;-68
2022/07/07 07:22:42;;;;;;;;;;;;;;;-144.99;100.00;52270.78;4987045;28;19933;-67
2022/07/07 07:25:10;;;;;;;;;;;;;;;-144.99;100.00;52244.28;4987330;28;20026;-67
2022/07/07 07:27:37;;;;;;;;;;;;;;;-144.99;100.00;52254.47;4986339;28;20403;-67
2022/07/07 07:30:04;;;;;;;;;;;;;;;-144.99;100.00;52293.19;4986138;28;19942;-65
2022/07/07 07:32:30;;;;;;;;;;;;;;;-144.99;100.00;52252.44;5003990;28;20159;-67
2022/07/07 07:34:57;;;;;;;;;;;;;;;-144.99;100.00;52285.03;4989121;28;19984;-67
2022/07/07 07:37:23;;;;;;;;;;;;;;;-144.99;100.00;52289.13;4986964;28;19975;-67
2022/07/07 07:39:50;;;;;;;;;;;;;;;-144.99;100.00;52260.56;4988085;28;20022;-67
2022/07/07 07:42:17;;;;;;;;;;;;;;;-144.99;100.00;52223.88;4986397;28;19930;-67
2022/07/07 07:47:28;;;;;;;;;;;;;;;-144.99;100.00;52227.97;4983164;28;20451;-68
2022/07/07 07:49:54;;;;;;;;;;;;;;;-144.99;100.00;52205.53;4986859;28;20383;-67
2022/07/07 07:52:21;;;;;;;;;;;;;;;-144.99;100.00;52240.19;4986335;28;20247;-66
2022/07/07 07:54:47;;;;;;;;;;;;;;;-144.99;100.00;52209.63;4986869;28;19995;-67
2022/07/07 07:57:14;;;;;;;;;;;;;;;-144.99;100.00;52219.81;4986137;28;20033;-66
2022/07/07 07:59:41;;;;;;;;;;;;;;;-144.99;100.00;52211.66;4985919;28;20418;-67
2022/07/07 08:02:08;;;;;;;;;;;;;;;-144.99;100.00;52219.81;4986391;28;20016;-67
2022/07/07 08:04:34;;;;;;;;;;;;;;;-144.99;100.00;52211.66;4987248;28;20374;-67
2022/07/07 08:07:01;;;;;;;;;;;;;;;-144.99;100.00;52207.59;4986279;28;19938;-66
2022/07/07 08:09:28;;;;;;;;;;;;;;;-144.99;100.00;52248.34;4986056;28;19973;-67
2022/07/07 08:11:54;;;;;;;;;;;;;;;-144.99;100.00;52264.66;4985740;28;20037;-66
2022/07/07 08:14:21;;;;;;;;;;;;;;;-144.99;100.00;52174.97;4985893;28;20028;-67
2022/07/07 08:16:48;;;;;;;;;;;;;;;-144.99;100.00;52191.28;4986262;28;19930;-67
2022/07/07 08:19:17;;;;;;;;;;;;;;;-144.99;100.00;52207.59;4983712;28;19968;-66
2022/07/07 08:21:46;;;;;;;;;;;;;;;-144.99;100.00;52232.03;4986175;28;20368;-67
2022/07/07 08:24:12;;;;;;;;;;;;;;;-144.99;100.00;52244.28;5015041;28;19930;-67
2022/07/07 08:26:39;;;;;;;;;;;;;;;-144.99;100.00;52181.09;4987271;28;19930;-67
2022/07/07 08:29:06;;;;;;;;;;;;;;;-144.99;100.00;52219.81;4985902;28;20395;-66
2022/07/07 08:31:33;;;;;;;;;;;;;;;-144.99;100.00;52199.44;4983948;28;19938;-66
2022/07/07 08:34:01;;;;;;;;;;;;;;;-144.99;100.00;52213.69;4987439;28;20013;-67
2022/07/07 08:36:27;;;;;;;;;;;;;;;-144.99;100.00;52187.19;4985914;28;19936;-68
2022/07/07 08:38:54;;;;;;;;;;;;;;;-144.99;98.37;52166.81;4987603;28;20036;-67
2022/07/07 08:41:20;;;;;;;;;;;;;;;-144.99;90.01;52199.44;4986793;28;20401;-68
2022/07/07 08:43:47;;;;;;;;;;;;;;;-144.99;90.42;52217.78;4986996;28;20009;-67
2022/07/07 08:46:13;;;;;;;;;;;;;;;-144.99;89.78;52205.53;4986931;28;19981;-66
2022/07/07 08:48:40;;;;;;;;;;;;;;;-144.99;89.55;52203.50;4986385;28;19987;-68
2022/07/07 08:51:08;;;;;;;;;;;;;;;-144.99;90.52;52189.25;4987570;28;19932;-68
2022/07/07 08:53:35;;;;;;;;;;;;;;;-144.99;90.40;52236.13;5007356;28;19928;-67
2022/07/07 08:56:03;;;;;;;;;;;;;;;-144.99;90.54;52252.44;4987448;28;20371;-67
2022/07/07 08:58:30;;;;;;;;;;;;;;;-144.99;89.16;52236.13;4988324;28;20125;-67
2022/07/07 09:00:57;;;;;;;;;;;;;;;-144.99;89.30;52236.13;4987401;28;20440;-66
2022/07/07 09:03:23;;;;;;;;;;;;;;;-144.99;90.07;52207.59;4987771;28;20459;-66
2022/07/07 09:05:50;;;;;;;;;;;;;;;-144.99;89.21;52207.59;4986924;28;20020;-67
2022/07/07 09:08:18;;;;;;;;;;;;;;;-144.99;88.97;52244.28;4986862;28;19930;-67
2022/07/07 09:10:45;;;;;;;;;;;;;;;-144.99;86.72;52181.09;4986445;28;20036;-67
2022/07/07 09:13:23;;;;;;;;;;;;;;;-144.99;86.08;52170.91;4985653;28;19933;-67
2022/07/07 09:15:49;;;;;;;;;;;;;;;-144.99;81.25;52207.59;4986899;28;20311;-66
2022/07/07 09:18:28;;;;;;;;;;;;;;;-144.99;77.66;52189.25;4982528;28;19930;-67
2022/07/07 09:20:55;;;;;;;;;;;;;;;-144.99;76.90;52223.88;4985561;28;19930;-67
2022/07/07 09:23:22;;;;;;;;;;;;;;;-144.99;74.31;52215.75;4986788;28;20422;-66
2022/07/07 09:25:49;;;;;;;;;;;;;;;-144.99;75.28;52223.88;4987742;28;19997;-66
2022/07/07 09:28:15;;;;;;;;;;;;;;;-144.99;75.94;52223.88;4986913;28;20020;-66
2022/07/07 09:30:43;;;;;;;;;;;;;;;-144.99;78.65;52230.00;4987094;28;20075;-66
2022/07/07 09:33:10;;;;;;;;;;;;;;;-144.99;81.30;52248.34;4985951;28;19930;-66
2022/07/07 09:38:24;;;;;;;;;;;;;;;-144.99;81.20;52201.47;4987493;28;19936;-66
2022/07/07 09:40:54;;;;;;;;;;;;;;;-144.99;80.18;52203.50;4986527;28;19969;-67
2022/07/07 09:43:21;;;;;;;;;;;;;;;-144.99;76.19;52179.06;5018445;28;19939;-67
2022/07/07 09:45:48;;;;;;;;;;;;;;;-144.99;74.98;52203.50;4986229;28;20013;-67
2022/07/07 09:48:15;;;;;;;;;;;;;;;-144.99;74.67;52199.44;4985068;28;19986;-67
2022/07/07 09:50:41;;;;;;;;;;;;;;;-144.99;73.69;52223.88;4985010;28;19936;-67
2022/07/07 09:53:08;;;;;;;;;;;;;;;-144.99;71.63;52244.28;4988926;28;19973;-68
2022/07/07 09:55:36;;;;;;;;;;;;;;;-144.99;72.38;52219.81;4998529;28;19972;-68
2022/07/07 09:58:03;;;;;;;;;;;;;;;-144.99;73.19;52248.34;4984386;28;19930;-66
2022/07/07 10:00:29;;;;;;;;;;;;;;;-144.99;75.28;52219.81;4985090;28;19983;-67
2022/07/07 10:02:57;;;;;;;;;;;;;;;-144.99;74.96;52234.09;4985921;28;19930;-66
2022/07/07 10:05:24;;;;;;;;;;;;;;;-144.99;72.78;52232.03;4986280;28;20067;-66
2022/07/07 10:07:50;;;;;;;;;;;;;;;-144.99;72.25;52197.41;4985850;28;19926;-66
2022/07/07 10:10:19;;;;;;;;;;;;;;;-144.99;69.87;52170.91;4984499;28;20390;-66
2022/07/07 10:12:49;;;;;;;;;;;;;;;-144.99;66.84;52223.88;4994483;28;19930;-65
2022/07/07 10:15:16;;;;;;;;;;;;;;;-144.99;66.52;52148.47;4984207;28;20389;-66
2022/07/07 10:17:43;;;;;;;;;;;;;;;-144.99;66.73;52160.72;4983943;28;19983;-65
2022/07/07 10:20:10;;;;;;;;;;;;;;;-144.99;64.19;52132.19;4982117;28;20048;-66
2022/07/07 10:22:38;;;;;;;;;;;;;;;-144.99;62.20;52195.34;4983857;28;20379;-66
2022/07/07 10:25:07;;;;;;;;;;;;;;;-144.99;61.70;52113.84;4983797;28;19957;-66
2022/07/07 10:27:34;;;;;;;;;;;;;;;-144.99;60.29;52195.34;4997237;23;21106;-71
2022/07/07 10:30:02;;;;;;;;;;;;;;;-144.99;58.39;52185.16;4984533;28;20012;-71
2022/07/07 10:32:30;;;;;;;;;;;;;;;-144.99;59.81;52183.13;4994076;28;20108;-71
2022/07/07 10:34:57;;;;;;;;;;;;;;;-144.99;60.14;52179.06;4986927;28;19925;-71
2022/07/07 10:37:24;;;;;;;;;;;;;;;-144.99;59.99;52183.13;4641117;28;9999864;-71
2022/07/07 10:39:53;;;;;;;;;;;;;;;-144.99;60.25;52195.34;5019754;28;20472;-71
2022/07/07 10:42:37;;;;;;;;;;;;;;;-144.99;61.81;52203.50;5037605;28;19925;-71
2022/07/07 10:45:07;;;;;;;;;;;;;;;-144.99;63.19;52211.66;4990412;28;20024;-71
2022/07/07 10:47:36;;;;;;;;;;;;;;;-144.99;64.03;52119.94;5027689;28;19953;-71
2022/07/07 10:50:02;;;;;;;;;;;;;;;-144.99;63.20;52158.66;5031085;28;20062;-71
2022/07/07 10:52:30;;;;;;;;;;;;;;;-144.99;61.93;52174.97;5014448;28;19983;-71
2022/07/07 10:54:59;;;;;;;;;;;;;;;-144.99;61.56;52154.59;5032268;28;20023;-71
2022/07/07 10:57:26;;;;;;;;;;;;;;;-144.99;60.91;52201.47;4983394;28;19929;-71
2022/07/07 11:00:20;;;;;;;;;;;;;;;-144.99;60.82;52191.28;4982788;28;19930;-71
2022/07/07 11:02:49;;;;;;;;;;;;;;;-144.99;62.47;52236.13;5002804;28;20385;-70
2022/07/07 11:05:33;;;;;;;;;;;;;;;-144.99;69.16;52242.22;5014949;28;20339;-70
2022/07/07 11:08:10;;;;;;;;;;;;;;;-144.99;78.37;52260.56;5030361;28;19924;-71
2022/07/07 11:10:51;;;;;;;;;;;;;;;-144.99;78.13;52227.97;5004640;28;20261;-71
2022/07/07 11:13:19;;;;;;;;;;;;;;;-144.99;79.54;52197.41;5000838;28;19990;-71
2022/07/07 11:15:45;;;;;;;;;;;;;;;-144.99;81.10;52189.25;5008423;28;20357;-71
2022/07/07 11:18:14;;;;;;;;;;;;;;;-144.99;78.59;52158.66;5024133;28;19924;-71
2022/07/07 11:20:51;;;;;;;;;;;;;;;-144.99;72.39;52203.50;5028929;28;20416;-71
2022/07/07 11:23:18;;;;;;;;;;;;;;;-144.99;71.05;52183.13;5028542;28;20355;-71
2022/07/07 11:25:45;;;;;;;;;;;;;;;-144.99;66.71;52181.09;5009175;28;20024;-71
2022/07/07 11:28:12;;;;;;;;;;;;;;;-144.99;64.68;52223.88;4994157;28;20222;-71
2022/07/07 11:30:40;;;;;;;;;;;;;;;-144.99;65.00;52219.81;4986473;28;20013;-71
2022/07/07 11:33:06;;;;;;;;;;;;;;;-144.99;67.04;52240.19;5003488;28;19940;-71
2022/07/07 11:35:36;;;;;;;;;;;;;;;-144.99;72.19;52242.22;5004887;28;19926;-71
2022/07/07 11:38:04;;;;;;;;;;;;;;;-144.99;77.87;52225.94;4986428;28;20465;-71
2022/07/07 11:40:31;;;;;;;;;;;;;;;-144.99;79.90;52285.03;5033594;28;19928;-71
2022/07/07 11:43:00;;;;;;;;;;;;;;;-144.99;84.20;52276.88;4987091;28;20377;-71
2022/07/07 11:45:27;;;;;;;;;;;;;;;-144.99;85.32;52219.81;4981655;28;20283;-71
2022/07/07 11:47:56;;;;;;;;;;;;;;;-144.99;85.64;52289.13;5005216;28;19926;-71
2022/07/07 11:50:23;;;;;;;;;;;;;;;-144.99;86.63;52256.50;5033279;28;19938;-71
2022/07/07 11:52:53;;;;;;;;;;;;;;;-144.99;86.51;52268.72;5015566;28;20024;-70
2022/07/07 11:55:20;;;;;;;;;;;;;;;-144.99;85.96;52244.28;5037795;28;20440;-71
2022/07/07 11:57:49;;;;;;;;;;;;;;;-144.99;83.94;52280.97;4984717;28;20437;-71
2022/07/07 12:00:17;;;;;;;;;;;;;;;-144.99;82.51;52199.44;5018936;28;19925;-71
2022/07/07 12:02:44;;;;;;;;;;;;;;;-144.99;77.58;52142.38;5009350;28;19978;-71
2022/07/07 12:05:11;;;;;;;;;;;;;;;-144.99;73.66;52191.28;5021667;28;20020;-71
2022/07/07 12:07:37;;;;;;;;;;;;;;;-144.99;70.85;52183.13;5020066;28;19928;-70
2022/07/07 12:10:06;;;;;;;;;;;;;;;-144.99;68.33;52219.81;5020978;28;20035;-70
2022/07/07 12:12:32;;;;;;;;;;;;;;;-144.99;69.16;52244.28;5015249;28;20366;-70
2022/07/07 12:14:59;;;;;;;;;;;;;;;-144.99;66.75;52236.13;5012616;28;20418;-71
2022/07/07 12:17:35;;;;;;;;;;;;;;;-144.99;64.01;52223.88;4999216;28;20002;-71
2022/07/07 12:20:02;;;;;;;;;;;;;;;-144.99;63.28;52250.38;5020364;28;19926;-71
2022/07/07 12:22:32;;;;;;;;;;;;;;;-144.99;62.58;52238.16;5033415;28;19935;-71
2022/07/07 12:25:00;;;;;;;;;;;;;;;-144.99;61.68;52191.28;5029683;28;19930;-71
2022/07/07 12:27:28;;;;;;;;;;;;;;;-144.99;60.16;52221.84;4976794;28;20025;-71